sensor_id;sensor_type;location;lat;lon;timestamp;P1;durP1;ratioP1;P2;durP2;ratioP2
7027;SDS011;3555;53.248;10.336;2022-07-24T00:01:34;2.22;;;1.52;;
7027;SDS011;3555;53.248;10.336;2022-07-24T00:04:02;2.47;;;1.20;;
7027;SDS011;3555;53.248;10.336;2022-07-24T00:06:29;3.88;;;2.03;;
7027;SDS011;3555;53.248;10.336;2022-07-24T00:08:56;2.72;;;1.50;;
7027;SDS011;3555;53.248;10.336;2022-07-24T00:11:23;2.88;;;1.60;;
7027;SDS011;3555;53.248;10.336;2022-07-24T00:13:50;1.50;;;1.35;;
7027;SDS011;3555;53.248;10.336;2022-07-24T00:16:18;2.10;;;1.58;;
7027;SDS011;3555;53.248;10.336;2022-07-24T00:18:45;3.30;;;1.60;;
7027;SDS011;3555;53.248;10.336;2022-07-24T00:21:12;3.60;;;1.60;;
7027;SDS011;3555;53.248;10.336;2022-07-24T00:23:39;2.88;;;1.52;;
7027;SDS011;3555;53.248;10.336;2022-07-24T00:26:07;1.90;;;1.70;;
7027;SDS011;3555;53.248;10.336;2022-07-24T00:28:33;2.55;;;1.63;;
7027;SDS011;3555;53.248;10.336;2022-07-24T00:31:00;3.08;;;1.80;;
7027;SDS011;3555;53.248;10.336;2022-07-24T00:33:28;2.45;;;1.52;;
7027;SDS011;3555;53.248;10.336;2022-07-24T00:35:55;4.72;;;1.70;;
7027;SDS011;3555;53.248;10.336;2022-07-24T00:38:22;2.67;;;1.70;;
7027;SDS011;3555;53.248;10.336;2022-07-24T00:40:49;2.85;;;1.70;;
7027;SDS011;3555;53.248;10.336;2022-07-24T00:43:16;2.40;;;1.73;;
7027;SDS011;3555;53.248;10.336;2022-07-24T00:45:43;2.40;;;1.92;;
7027;SDS011;3555;53.248;10.336;2022-07-24T00:48:10;2.65;;;1.60;;
7027;SDS011;3555;53.248;10.336;2022-07-24T00:50:38;2.47;;;1.77;;
7027;SDS011;3555;53.248;10.336;2022-07-24T00:53:06;2.35;;;1.70;;
7027;SDS011;3555;53.248;10.336;2022-07-24T00:55:34;2.30;;;1.70;;
7027;SDS011;3555;53.248;10.336;2022-07-24T00:58:01;3.40;;;1.75;;
7027;SDS011;3555;53.248;10.336;2022-07-24T01:00:27;1.92;;;1.73;;
7027;SDS011;3555;53.248;10.336;2022-07-24T01:02:54;5.10;;;1.85;;
7027;SDS011;3555;53.248;10.336;2022-07-24T01:05:21;4.63;;;1.75;;
7027;SDS011;3555;53.248;10.336;2022-07-24T01:07:50;2.72;;;1.45;;
7027;SDS011;3555;53.248;10.336;2022-07-24T01:10:16;1.80;;;1.50;;
7027;SDS011;3555;53.248;10.336;2022-07-24T01:12:43;2.25;;;1.42;;
7027;SDS011;3555;53.248;10.336;2022-07-24T01:15:10;2.90;;;1.63;;
7027;SDS011;3555;53.248;10.336;2022-07-24T01:17:40;1.52;;;1.42;;
7027;SDS011;3555;53.248;10.336;2022-07-24T01:20:08;3.05;;;1.52;;
7027;SDS011;3555;53.248;10.336;2022-07-24T01:22:38;3.03;;;1.52;;
7027;SDS011;3555;53.248;10.336;2022-07-24T01:25:05;1.48;;;1.30;;
7027;SDS011;3555;53.248;10.336;2022-07-24T01:27:32;2.05;;;1.40;;
7027;SDS011;3555;53.248;10.336;2022-07-24T01:29:59;3.05;;;1.48;;
7027;SDS011;3555;53.248;10.336;2022-07-24T01:32:26;2.45;;;1.67;;
7027;SDS011;3555;53.248;10.336;2022-07-24T01:34:53;3.20;;;1.50;;
7027;SDS011;3555;53.248;10.336;2022-07-24T01:37:20;2.35;;;1.90;;
7027;SDS011;3555;53.248;10.336;2022-07-24T01:39:48;1.63;;;1.42;;
7027;SDS011;3555;53.248;10.336;2022-07-24T01:42:15;3.83;;;1.98;;
7027;SDS011;3555;53.248;10.336;2022-07-24T01:44:44;3.10;;;2.00;;
7027;SDS011;3555;53.248;10.336;2022-07-24T01:47:11;2.90;;;1.60;;
7027;SDS011;3555;53.248;10.336;2022-07-24T01:49:38;3.10;;;1.80;;
7027;SDS011;3555;53.248;10.336;2022-07-24T01:52:05;3.50;;;1.80;;
7027;SDS011;3555;53.248;10.336;2022-07-24T01:54:32;2.70;;;1.80;;
7027;SDS011;3555;53.248;10.336;2022-07-24T01:57:00;1.83;;;1.60;;
7027;SDS011;3555;53.248;10.336;2022-07-24T01:59:27;2.00;;;1.77;;
7027;SDS011;3555;53.248;10.336;2022-07-24T02:01:53;1.67;;;1.50;;
7027;SDS011;3555;53.248;10.336;2022-07-24T02:04:20;3.03;;;1.70;;
7027;SDS011;3555;53.248;10.336;2022-07-24T02:06:47;2.33;;;1.80;;
7027;SDS011;3555;53.248;10.336;2022-07-24T02:09:14;1.87;;;1.57;;
7027;SDS011;3555;53.248;10.336;2022-07-24T02:11:41;2.03;;;1.80;;
7027;SDS011;3555;53.248;10.336;2022-07-24T02:14:09;2.40;;;2.03;;
7027;SDS011;3555;53.248;10.336;2022-07-24T02:16:36;2.63;;;1.80;;
7027;SDS011;3555;53.248;10.336;2022-07-24T02:19:03;3.00;;;1.73;;
7027;SDS011;3555;53.248;10.336;2022-07-24T02:21:30;2.27;;;2.00;;
7027;SDS011;3555;53.248;10.336;2022-07-24T02:23:57;3.03;;;1.70;;
7027;SDS011;3555;53.248;10.336;2022-07-24T02:26:23;1.93;;;1.63;;
7027;SDS011;3555;53.248;10.336;2022-07-24T02:28:50;2.90;;;1.80;;
7027;SDS011;3555;53.248;10.336;2022-07-24T02:31:18;1.97;;;1.50;;
7027;SDS011;3555;53.248;10.336;2022-07-24T02:33:45;3.20;;;2.00;;
7027;SDS011;3555;53.248;10.336;2022-07-24T02:36:12;2.23;;;1.90;;
7027;SDS011;3555;53.248;10.336;2022-07-24T02:38:39;2.83;;;1.80;;
7027;SDS011;3555;53.248;10.336;2022-07-24T02:41:07;2.70;;;1.87;;
7027;SDS011;3555;53.248;10.336;2022-07-24T02:43:34;3.40;;;1.80;;
7027;SDS011;3555;53.248;10.336;2022-07-24T02:46:01;2.07;;;1.80;;
7027;SDS011;3555;53.248;10.336;2022-07-24T02:48:29;2.30;;;1.90;;
7027;SDS011;3555;53.248;10.336;2022-07-24T02:50:56;2.67;;;1.90;;
7027;SDS011;3555;53.248;10.336;2022-07-24T02:53:23;2.93;;;2.10;;
7027;SDS011;3555;53.248;10.336;2022-07-24T02:55:50;1.80;;;1.70;;
7027;SDS011;3555;53.248;10.336;2022-07-24T02:58:17;3.30;;;1.80;;
7027;SDS011;3555;53.248;10.336;2022-07-24T03:00:44;3.17;;;1.80;;
7027;SDS011;3555;53.248;10.336;2022-07-24T03:03:11;3.30;;;2.00;;
7027;SDS011;3555;53.248;10.336;2022-07-24T03:05:39;2.03;;;1.80;;
7027;SDS011;3555;53.248;10.336;2022-07-24T03:08:06;2.27;;;2.03;;
7027;SDS011;3555;53.248;10.336;2022-07-24T03:10:33;2.00;;;1.60;;
7027;SDS011;3555;53.248;10.336;2022-07-24T03:13:00;2.53;;;1.80;;
7027;SDS011;3555;53.248;10.336;2022-07-24T03:15:27;2.10;;;1.60;;
7027;SDS011;3555;53.248;10.336;2022-07-24T03:17:55;2.17;;;1.70;;
7027;SDS011;3555;53.248;10.336;2022-07-24T03:20:23;2.07;;;1.60;;
7027;SDS011;3555;53.248;10.336;2022-07-24T03:22:52;4.43;;;1.77;;
7027;SDS011;3555;53.248;10.336;2022-07-24T03:25:20;3.00;;;2.00;;
7027;SDS011;3555;53.248;10.336;2022-07-24T03:27:47;3.43;;;1.70;;
7027;SDS011;3555;53.248;10.336;2022-07-24T03:30:15;1.87;;;1.70;;
7027;SDS011;3555;53.248;10.336;2022-07-24T03:32:42;3.03;;;2.00;;
7027;SDS011;3555;53.248;10.336;2022-07-24T03:35:09;2.60;;;2.00;;
7027;SDS011;3555;53.248;10.336;2022-07-24T03:37:36;2.57;;;1.80;;
7027;SDS011;3555;53.248;10.336;2022-07-24T03:40:05;2.20;;;1.90;;
7027;SDS011;3555;53.248;10.336;2022-07-24T03:42:33;3.47;;;2.17;;
7027;SDS011;3555;53.248;10.336;2022-07-24T03:45:00;2.57;;;2.00;;
7027;SDS011;3555;53.248;10.336;2022-07-24T03:47:27;3.60;;;2.03;;
7027;SDS011;3555;53.248;10.336;2022-07-24T03:49:53;2.80;;;2.07;;
7027;SDS011;3555;53.248;10.336;2022-07-24T03:52:20;3.27;;;2.10;;
7027;SDS011;3555;53.248;10.336;2022-07-24T03:54:47;2.97;;;2.00;;
7027;SDS011;3555;53.248;10.336;2022-07-24T03:57:15;2.30;;;2.10;;
7027;SDS011;3555;53.248;10.336;2022-07-24T03:59:42;2.73;;;2.17;;
7027;SDS011;3555;53.248;10.336;2022-07-24T04:02:09;2.77;;;2.03;;
7027;SDS011;3555;53.248;10.336;2022-07-24T04:04:36;3.07;;;2.07;;
7027;SDS011;3555;53.248;10.336;2022-07-24T04:07:03;2.57;;;2.17;;
7027;SDS011;3555;53.248;10.336;2022-07-24T04:09:29;3.63;;;1.97;;
7027;SDS011;3555;53.248;10.336;2022-07-24T04:11:56;3.00;;;2.10;;
7027;SDS011;3555;53.248;10.336;2022-07-24T04:14:24;3.20;;;2.10;;
7027;SDS011;3555;53.248;10.336;2022-07-24T04:16:51;4.27;;;2.30;;
7027;SDS011;3555;53.248;10.336;2022-07-24T04:19:18;5.83;;;2.30;;
7027;SDS011;3555;53.248;10.336;2022-07-24T04:21:45;3.37;;;2.20;;
7027;SDS011;3555;53.248;10.336;2022-07-24T04:24:12;5.00;;;2.47;;
7027;SDS011;3555;53.248;10.336;2022-07-24T04:26:39;3.50;;;2.47;;
7027;SDS011;3555;53.248;10.336;2022-07-24T04:29:05;2.60;;;2.40;;
7027;SDS011;3555;53.248;10.336;2022-07-24T04:31:34;4.97;;;2.80;;
7027;SDS011;3555;53.248;10.336;2022-07-24T04:34:01;3.47;;;2.20;;
7027;SDS011;3555;53.248;10.336;2022-07-24T04:36:27;3.20;;;2.20;;
7027;SDS011;3555;53.248;10.336;2022-07-24T04:38:54;2.50;;;2.30;;
7027;SDS011;3555;53.248;10.336;2022-07-24T04:41:21;2.93;;;2.40;;
7027;SDS011;3555;53.248;10.336;2022-07-24T04:43:48;2.43;;;2.13;;
7027;SDS011;3555;53.248;10.336;2022-07-24T04:46:15;3.60;;;2.23;;
7027;SDS011;3555;53.248;10.336;2022-07-24T04:48:44;2.50;;;2.17;;
7027;SDS011;3555;53.248;10.336;2022-07-24T04:51:11;3.63;;;2.40;;
7027;SDS011;3555;53.248;10.336;2022-07-24T04:53:38;2.87;;;2.13;;
7027;SDS011;3555;53.248;10.336;2022-07-24T04:56:05;3.53;;;2.10;;
7027;SDS011;3555;53.248;10.336;2022-07-24T04:58:32;9.23;;;2.43;;
7027;SDS011;3555;53.248;10.336;2022-07-24T05:00:59;3.03;;;2.13;;
7027;SDS011;3555;53.248;10.336;2022-07-24T05:03:26;2.20;;;1.87;;
7027;SDS011;3555;53.248;10.336;2022-07-24T05:05:54;5.22;;;2.10;;
7027;SDS011;3555;53.248;10.336;2022-07-24T05:08:21;4.50;;;2.20;;
7027;SDS011;3555;53.248;10.336;2022-07-24T05:10:48;3.60;;;2.38;;
7027;SDS011;3555;53.248;10.336;2022-07-24T05:13:15;4.55;;;2.45;;
7027;SDS011;3555;53.248;10.336;2022-07-24T05:15:42;3.17;;;2.33;;
7027;SDS011;3555;53.248;10.336;2022-07-24T05:18:09;2.97;;;2.25;;
7027;SDS011;3555;53.248;10.336;2022-07-24T05:20:36;4.30;;;1.90;;
7027;SDS011;3555;53.248;10.336;2022-07-24T05:23:04;2.70;;;1.92;;
7027;SDS011;3555;53.248;10.336;2022-07-24T05:25:31;3.25;;;1.85;;
7027;SDS011;3555;53.248;10.336;2022-07-24T05:27:58;1.92;;;1.45;;
7027;SDS011;3555;53.248;10.336;2022-07-24T05:30:25;2.17;;;1.75;;
7027;SDS011;3555;53.248;10.336;2022-07-24T05:32:51;3.22;;;1.80;;
7027;SDS011;3555;53.248;10.336;2022-07-24T05:35:19;3.95;;;1.45;;
7027;SDS011;3555;53.248;10.336;2022-07-24T05:37:46;1.88;;;1.33;;
7027;SDS011;3555;53.248;10.336;2022-07-24T05:40:14;3.08;;;1.60;;
7027;SDS011;3555;53.248;10.336;2022-07-24T05:42:41;2.42;;;1.40;;
7027;SDS011;3555;53.248;10.336;2022-07-24T05:45:08;5.72;;;1.67;;
7027;SDS011;3555;53.248;10.336;2022-07-24T05:47:36;2.90;;;1.63;;
7027;SDS011;3555;53.248;10.336;2022-07-24T05:50:05;3.15;;;1.70;;
7027;SDS011;3555;53.248;10.336;2022-07-24T05:52:33;2.17;;;1.50;;
7027;SDS011;3555;53.248;10.336;2022-07-24T05:55:00;3.85;;;1.40;;
7027;SDS011;3555;53.248;10.336;2022-07-24T05:57:29;2.00;;;1.42;;
7027;SDS011;3555;53.248;10.336;2022-07-24T05:59:56;4.35;;;1.40;;
7027;SDS011;3555;53.248;10.336;2022-07-24T06:02:23;2.75;;;1.40;;
7027;SDS011;3555;53.248;10.336;2022-07-24T06:04:50;2.22;;;1.20;;
7027;SDS011;3555;53.248;10.336;2022-07-24T06:07:17;6.38;;;2.28;;
7027;SDS011;3555;53.248;10.336;2022-07-24T06:09:44;2.80;;;1.40;;
7027;SDS011;3555;53.248;10.336;2022-07-24T06:12:10;1.83;;;1.30;;
7027;SDS011;3555;53.248;10.336;2022-07-24T06:14:39;3.35;;;1.40;;
7027;SDS011;3555;53.248;10.336;2022-07-24T06:17:05;2.15;;;1.13;;
7027;SDS011;3555;53.248;10.336;2022-07-24T06:19:32;4.28;;;1.92;;
7027;SDS011;3555;53.248;10.336;2022-07-24T06:21:59;2.25;;;1.40;;
7027;SDS011;3555;53.248;10.336;2022-07-24T06:24:26;1.60;;;1.10;;
7027;SDS011;3555;53.248;10.336;2022-07-24T06:26:53;1.83;;;1.20;;
7027;SDS011;3555;53.248;10.336;2022-07-24T06:29:20;1.95;;;1.02;;
7027;SDS011;3555;53.248;10.336;2022-07-24T06:31:48;3.30;;;1.20;;
7027;SDS011;3555;53.248;10.336;2022-07-24T06:34:15;2.08;;;1.05;;
7027;SDS011;3555;53.248;10.336;2022-07-24T06:36:41;2.30;;;1.30;;
7027;SDS011;3555;53.248;10.336;2022-07-24T06:39:08;4.03;;;1.30;;
7027;SDS011;3555;53.248;10.336;2022-07-24T06:41:35;1.52;;;1.10;;
7027;SDS011;3555;53.248;10.336;2022-07-24T06:44:02;2.33;;;1.10;;
7027;SDS011;3555;53.248;10.336;2022-07-24T06:46:29;2.80;;;1.05;;
7027;SDS011;3555;53.248;10.336;2022-07-24T06:48:57;4.05;;;1.10;;
7027;SDS011;3555;53.248;10.336;2022-07-24T06:51:24;1.50;;;1.02;;
7027;SDS011;3555;53.248;10.336;2022-07-24T06:53:51;3.58;;;1.38;;
7027;SDS011;3555;53.248;10.336;2022-07-24T06:56:18;3.80;;;1.02;;
7027;SDS011;3555;53.248;10.336;2022-07-24T06:58:45;2.67;;;1.00;;
7027;SDS011;3555;53.248;10.336;2022-07-24T07:01:12;3.95;;;1.30;;
7027;SDS011;3555;53.248;10.336;2022-07-24T07:03:39;1.85;;;1.00;;
7027;SDS011;3555;53.248;10.336;2022-07-24T07:06:08;1.73;;;1.10;;
7027;SDS011;3555;53.248;10.336;2022-07-24T07:08:35;2.47;;;1.30;;
7027;SDS011;3555;53.248;10.336;2022-07-24T07:11:02;2.28;;;0.98;;
7027;SDS011;3555;53.248;10.336;2022-07-24T07:13:29;2.58;;;1.17;;
7027;SDS011;3555;53.248;10.336;2022-07-24T07:15:56;3.80;;;0.98;;
7027;SDS011;3555;53.248;10.336;2022-07-24T07:18:23;1.60;;;0.77;;
7027;SDS011;3555;53.248;10.336;2022-07-24T07:20:49;2.50;;;1.10;;
7027;SDS011;3555;53.248;10.336;2022-07-24T07:23:20;1.58;;;1.13;;
7027;SDS011;3555;53.248;10.336;2022-07-24T07:25:48;2.45;;;0.85;;
7027;SDS011;3555;53.248;10.336;2022-07-24T07:28:15;1.55;;;1.10;;
7027;SDS011;3555;53.248;10.336;2022-07-24T07:30:42;2.00;;;1.00;;
7027;SDS011;3555;53.248;10.336;2022-07-24T07:33:09;2.35;;;1.20;;
7027;SDS011;3555;53.248;10.336;2022-07-24T07:35:35;4.03;;;1.00;;
7027;SDS011;3555;53.248;10.336;2022-07-24T07:38:02;2.13;;;1.05;;
7027;SDS011;3555;53.248;10.336;2022-07-24T07:40:30;3.85;;;1.10;;
7027;SDS011;3555;53.248;10.336;2022-07-24T07:42:57;2.95;;;1.38;;
7027;SDS011;3555;53.248;10.336;2022-07-24T07:45:24;3.13;;;1.05;;
7027;SDS011;3555;53.248;10.336;2022-07-24T07:47:51;2.47;;;1.25;;
7027;SDS011;3555;53.248;10.336;2022-07-24T07:50:18;1.42;;;1.00;;
7027;SDS011;3555;53.248;10.336;2022-07-24T07:52:45;1.25;;;0.88;;
7027;SDS011;3555;53.248;10.336;2022-07-24T07:55:11;1.63;;;0.95;;
7027;SDS011;3555;53.248;10.336;2022-07-24T07:57:40;1.30;;;0.98;;
7027;SDS011;3555;53.248;10.336;2022-07-24T08:00:08;2.92;;;1.25;;
7027;SDS011;3555;53.248;10.336;2022-07-24T08:02:36;2.65;;;1.10;;
7027;SDS011;3555;53.248;10.336;2022-07-24T08:05:03;2.85;;;1.20;;
7027;SDS011;3555;53.248;10.336;2022-07-24T08:07:31;2.28;;;1.10;;
7027;SDS011;3555;53.248;10.336;2022-07-24T08:09:58;1.30;;;1.02;;
7027;SDS011;3555;53.248;10.336;2022-07-24T08:12:25;2.05;;;1.10;;
7027;SDS011;3555;53.248;10.336;2022-07-24T08:14:53;2.40;;;1.10;;
7027;SDS011;3555;53.248;10.336;2022-07-24T08:17:20;2.17;;;1.05;;
7027;SDS011;3555;53.248;10.336;2022-07-24T08:19:47;3.22;;;1.10;;
7027;SDS011;3555;53.248;10.336;2022-07-24T08:22:14;2.47;;;1.30;;
7027;SDS011;3555;53.248;10.336;2022-07-24T08:24:41;1.90;;;1.23;;
7027;SDS011;3555;53.248;10.336;2022-07-24T08:27:08;1.92;;;1.30;;
7027;SDS011;3555;53.248;10.336;2022-07-24T08:29:34;1.90;;;1.00;;
7027;SDS011;3555;53.248;10.336;2022-07-24T08:32:03;2.38;;;1.40;;
7027;SDS011;3555;53.248;10.336;2022-07-24T08:34:30;2.08;;;1.20;;
7027;SDS011;3555;53.248;10.336;2022-07-24T08:36:57;2.17;;;1.35;;
7027;SDS011;3555;53.248;10.336;2022-07-24T08:39:24;1.92;;;1.13;;
7027;SDS011;3555;53.248;10.336;2022-07-24T08:41:50;2.42;;;1.13;;
7027;SDS011;3555;53.248;10.336;2022-07-24T08:44:17;2.53;;;1.23;;
7027;SDS011;3555;53.248;10.336;2022-07-24T08:46:44;1.83;;;1.13;;
7027;SDS011;3555;53.248;10.336;2022-07-24T08:49:13;2.47;;;1.30;;
7027;SDS011;3555;53.248;10.336;2022-07-24T08:51:41;2.53;;;1.48;;
7027;SDS011;3555;53.248;10.336;2022-07-24T08:54:09;2.28;;;1.10;;
7027;SDS011;3555;53.248;10.336;2022-07-24T08:56:37;2.45;;;1.20;;
7027;SDS011;3555;53.248;10.336;2022-07-24T08:59:05;2.88;;;1.25;;
7027;SDS011;3555;53.248;10.336;2022-07-24T09:01:41;2.03;;;1.25;;
7027;SDS011;3555;53.248;10.336;2022-07-24T09:07:02;1.77;;;1.27;;
7027;SDS011;3555;53.248;10.336;2022-07-24T09:09:30;2.15;;;1.33;;
7027;SDS011;3555;53.248;10.336;2022-07-24T09:14:45;2.65;;;1.50;;
7027;SDS011;3555;53.248;10.336;2022-07-24T09:17:13;1.92;;;1.20;;
7027;SDS011;3555;53.248;10.336;2022-07-24T09:19:49;2.65;;;1.30;;
7027;SDS011;3555;53.248;10.336;2022-07-24T09:22:31;2.38;;;1.38;;
7027;SDS011;3555;53.248;10.336;2022-07-24T09:25:03;1.90;;;1.23;;
7027;SDS011;3555;53.248;10.336;2022-07-24T09:27:32;1.80;;;1.40;;
7027;SDS011;3555;53.248;10.336;2022-07-24T09:29:59;2.78;;;1.60;;
7027;SDS011;3555;53.248;10.336;2022-07-24T09:32:26;3.53;;;1.52;;
7027;SDS011;3555;53.248;10.336;2022-07-24T09:34:54;2.33;;;1.70;;
7027;SDS011;3555;53.248;10.336;2022-07-24T09:37:22;3.95;;;1.92;;
7027;SDS011;3555;53.248;10.336;2022-07-24T09:39:51;3.63;;;1.60;;
7027;SDS011;3555;53.248;10.336;2022-07-24T09:42:18;2.22;;;1.70;;
7027;SDS011;3555;53.248;10.336;2022-07-24T09:44:56;5.80;;;1.83;;
7027;SDS011;3555;53.248;10.336;2022-07-24T09:47:23;1.92;;;1.42;;
7027;SDS011;3555;53.248;10.336;2022-07-24T09:49:51;3.03;;;1.50;;
7027;SDS011;3555;53.248;10.336;2022-07-24T09:52:36;4.20;;;1.55;;
7027;SDS011;3555;53.248;10.336;2022-07-24T09:55:09;1.98;;;1.55;;
7027;SDS011;3555;53.248;10.336;2022-07-24T09:57:46;5.10;;;1.73;;
7027;SDS011;3555;53.248;10.336;2022-07-24T10:00:13;3.85;;;1.60;;
7027;SDS011;3555;53.248;10.336;2022-07-24T10:02:42;1.95;;;1.67;;
7027;SDS011;3555;53.248;10.336;2022-07-24T10:05:13;3.33;;;1.55;;
7027;SDS011;3555;53.248;10.336;2022-07-24T10:07:41;3.70;;;1.92;;
7027;SDS011;3555;53.248;10.336;2022-07-24T10:10:09;3.88;;;2.10;;
7027;SDS011;3555;53.248;10.336;2022-07-24T10:12:36;4.15;;;2.20;;
7027;SDS011;3555;53.248;10.336;2022-07-24T10:15:04;3.63;;;2.30;;
7027;SDS011;3555;53.248;10.336;2022-07-24T10:17:34;2.88;;;1.98;;
7027;SDS011;3555;53.248;10.336;2022-07-24T10:20:13;4.90;;;2.00;;
7027;SDS011;3555;53.248;10.336;2022-07-24T10:22:56;4.22;;;2.20;;
7027;SDS011;3555;53.248;10.336;2022-07-24T10:25:28;3.47;;;1.65;;
7027;SDS011;3555;53.248;10.336;2022-07-24T10:28:01;2.47;;;2.08;;
7027;SDS011;3555;53.248;10.336;2022-07-24T10:30:31;2.45;;;1.73;;
7027;SDS011;3555;53.248;10.336;2022-07-24T10:32:58;3.83;;;1.67;;
7027;SDS011;3555;53.248;10.336;2022-07-24T10:35:26;2.80;;;1.70;;
7027;SDS011;3555;53.248;10.336;2022-07-24T10:38:03;2.78;;;1.95;;
7027;SDS011;3555;53.248;10.336;2022-07-24T10:40:39;4.03;;;2.05;;
7027;SDS011;3555;53.248;10.336;2022-07-24T10:43:11;2.85;;;2.10;;
7027;SDS011;3555;53.248;10.336;2022-07-24T10:45:40;3.55;;;1.85;;
7027;SDS011;3555;53.248;10.336;2022-07-24T10:48:26;4.03;;;2.00;;
7027;SDS011;3555;53.248;10.336;2022-07-24T10:51:02;3.65;;;2.40;;
7027;SDS011;3555;53.248;10.336;2022-07-24T10:53:51;2.85;;;1.92;;
7027;SDS011;3555;53.248;10.336;2022-07-24T10:56:22;2.28;;;1.77;;
7027;SDS011;3555;53.248;10.336;2022-07-24T10:58:52;2.92;;;2.10;;
7027;SDS011;3555;53.248;10.336;2022-07-24T11:01:32;4.97;;;2.45;;
7027;SDS011;3555;53.248;10.336;2022-07-24T11:09:55;2.78;;;2.08;;
7027;SDS011;3555;53.248;10.336;2022-07-24T11:12:28;2.80;;;2.17;;
7027;SDS011;3555;53.248;10.336;2022-07-24T11:14:59;3.15;;;2.38;;
7027;SDS011;3555;53.248;10.336;2022-07-24T11:17:41;4.07;;;1.83;;
7027;SDS011;3555;53.248;10.336;2022-07-24T11:20:09;4.00;;;2.40;;
7027;SDS011;3555;53.248;10.336;2022-07-24T11:22:38;4.35;;;2.38;;
7027;SDS011;3555;53.248;10.336;2022-07-24T11:25:09;2.92;;;2.30;;
7027;SDS011;3555;53.248;10.336;2022-07-24T11:27:42;4.35;;;2.30;;
7027;SDS011;3555;53.248;10.336;2022-07-24T11:30:11;3.38;;;2.38;;
7027;SDS011;3555;53.248;10.336;2022-07-24T11:32:39;4.70;;;2.58;;
7027;SDS011;3555;53.248;10.336;2022-07-24T11:35:07;6.72;;;2.90;;
7027;SDS011;3555;53.248;10.336;2022-07-24T11:37:34;3.60;;;2.75;;
7027;SDS011;3555;53.248;10.336;2022-07-24T11:40:02;3.08;;;2.50;;
7027;SDS011;3555;53.248;10.336;2022-07-24T11:42:31;3.25;;;2.53;;
7027;SDS011;3555;53.248;10.336;2022-07-24T11:44:59;3.75;;;2.40;;
7027;SDS011;3555;53.248;10.336;2022-07-24T11:47:26;2.90;;;2.10;;
7027;SDS011;3555;53.248;10.336;2022-07-24T11:49:55;2.53;;;2.00;;
7027;SDS011;3555;53.248;10.336;2022-07-24T11:52:24;4.25;;;2.42;;
7027;SDS011;3555;53.248;10.336;2022-07-24T11:54:53;3.90;;;2.60;;
7027;SDS011;3555;53.248;10.336;2022-07-24T11:57:21;4.53;;;2.83;;
7027;SDS011;3555;53.248;10.336;2022-07-24T11:59:50;3.95;;;2.83;;
7027;SDS011;3555;53.248;10.336;2022-07-24T12:02:19;6.75;;;3.00;;
7027;SDS011;3555;53.248;10.336;2022-07-24T12:04:46;6.10;;;2.60;;
7027;SDS011;3555;53.248;10.336;2022-07-24T12:07:15;4.32;;;2.53;;
7027;SDS011;3555;53.248;10.336;2022-07-24T12:09:45;4.80;;;3.03;;
7027;SDS011;3555;53.248;10.336;2022-07-24T12:12:20;3.33;;;2.83;;
7027;SDS011;3555;53.248;10.336;2022-07-24T12:14:59;4.25;;;2.70;;
7027;SDS011;3555;53.248;10.336;2022-07-24T12:17:27;3.95;;;3.03;;
7027;SDS011;3555;53.248;10.336;2022-07-24T12:19:55;3.60;;;2.97;;
7027;SDS011;3555;53.248;10.336;2022-07-24T12:22:23;4.20;;;2.53;;
7027;SDS011;3555;53.248;10.336;2022-07-24T12:24:51;4.10;;;3.17;;
7027;SDS011;3555;53.248;10.336;2022-07-24T12:27:36;3.75;;;2.83;;
7027;SDS011;3555;53.248;10.336;2022-07-24T12:30:16;5.95;;;3.20;;
7027;SDS011;3555;53.248;10.336;2022-07-24T12:32:58;4.13;;;3.15;;
7027;SDS011;3555;53.248;10.336;2022-07-24T12:35:28;3.78;;;2.83;;
7027;SDS011;3555;53.248;10.336;2022-07-24T12:37:57;4.90;;;3.38;;
7027;SDS011;3555;53.248;10.336;2022-07-24T12:40:26;4.90;;;3.15;;
7027;SDS011;3555;53.248;10.336;2022-07-24T12:43:02;4.55;;;3.15;;
7027;SDS011;3555;53.248;10.336;2022-07-24T12:45:33;4.03;;;3.05;;
7027;SDS011;3555;53.248;10.336;2022-07-24T12:48:04;4.07;;;3.08;;
7027;SDS011;3555;53.248;10.336;2022-07-24T12:50:32;4.93;;;3.08;;
7027;SDS011;3555;53.248;10.336;2022-07-24T12:53:01;3.58;;;2.90;;
7027;SDS011;3555;53.248;10.336;2022-07-24T12:55:29;3.38;;;2.83;;
7027;SDS011;3555;53.248;10.336;2022-07-24T12:57:56;3.58;;;2.88;;
7027;SDS011;3555;53.248;10.336;2022-07-24T13:00:24;4.22;;;3.15;;
7027;SDS011;3555;53.248;10.336;2022-07-24T13:02:53;3.20;;;2.90;;
7027;SDS011;3555;53.248;10.336;2022-07-24T13:08:02;3.67;;;2.75;;
7027;SDS011;3555;53.248;10.336;2022-07-24T13:10:29;4.82;;;2.70;;
7027;SDS011;3555;53.248;10.336;2022-07-24T13:12:56;3.45;;;2.50;;
7027;SDS011;3555;53.248;10.336;2022-07-24T13:15:23;3.28;;;2.67;;
7027;SDS011;3555;53.248;10.336;2022-07-24T13:17:49;4.20;;;2.65;;
7027;SDS011;3555;53.248;10.336;2022-07-24T13:20:18;4.55;;;2.90;;
7027;SDS011;3555;53.248;10.336;2022-07-24T13:22:45;2.90;;;2.60;;
7027;SDS011;3555;53.248;10.336;2022-07-24T13:25:12;3.35;;;2.53;;
7027;SDS011;3555;53.248;10.336;2022-07-24T13:27:38;5.03;;;2.67;;
7027;SDS011;3555;53.248;10.336;2022-07-24T13:30:06;4.45;;;2.70;;
7027;SDS011;3555;53.248;10.336;2022-07-24T13:32:33;4.18;;;2.75;;
7027;SDS011;3555;53.248;10.336;2022-07-24T13:35:00;3.95;;;2.63;;
7027;SDS011;3555;53.248;10.336;2022-07-24T13:37:28;4.32;;;2.72;;
7027;SDS011;3555;53.248;10.336;2022-07-24T13:39:55;4.63;;;2.50;;
7027;SDS011;3555;53.248;10.336;2022-07-24T13:42:22;2.92;;;2.63;;
7027;SDS011;3555;53.248;10.336;2022-07-24T13:44:49;3.35;;;2.50;;
7027;SDS011;3555;53.248;10.336;2022-07-24T13:47:15;4.47;;;2.40;;
7027;SDS011;3555;53.248;10.336;2022-07-24T13:49:42;4.05;;;2.75;;
7027;SDS011;3555;53.248;10.336;2022-07-24T13:52:09;3.58;;;2.70;;
7027;SDS011;3555;53.248;10.336;2022-07-24T13:54:37;3.33;;;2.40;;
7027;SDS011;3555;53.248;10.336;2022-07-24T13:57:04;4.68;;;2.50;;
7027;SDS011;3555;53.248;10.336;2022-07-24T13:59:31;3.83;;;2.60;;
7027;SDS011;3555;53.248;10.336;2022-07-24T14:01:59;3.75;;;3.08;;
7027;SDS011;3555;53.248;10.336;2022-07-24T14:04:25;3.65;;;2.40;;
7027;SDS011;3555;53.248;10.336;2022-07-24T14:06:52;4.75;;;2.75;;
7027;SDS011;3555;53.248;10.336;2022-07-24T14:09:19;6.03;;;2.92;;
7027;SDS011;3555;53.248;10.336;2022-07-24T14:11:49;3.75;;;2.50;;
7027;SDS011;3555;53.248;10.336;2022-07-24T14:14:16;2.85;;;2.58;;
7027;SDS011;3555;53.248;10.336;2022-07-24T14:16:43;2.78;;;2.47;;
7027;SDS011;3555;53.248;10.336;2022-07-24T14:19:10;3.05;;;2.72;;
7027;SDS011;3555;53.248;10.336;2022-07-24T14:21:37;3.30;;;2.40;;
7027;SDS011;3555;53.248;10.336;2022-07-24T14:24:04;3.22;;;2.50;;
7027;SDS011;3555;53.248;10.336;2022-07-24T14:26:31;4.43;;;2.65;;
7027;SDS011;3555;53.248;10.336;2022-07-24T14:28:59;2.97;;;2.33;;
7027;SDS011;3555;53.248;10.336;2022-07-24T14:31:26;3.60;;;2.47;;
7027;SDS011;3555;53.248;10.336;2022-07-24T14:33:53;3.00;;;2.50;;
7027;SDS011;3555;53.248;10.336;2022-07-24T14:36:20;3.65;;;2.38;;
7027;SDS011;3555;53.248;10.336;2022-07-24T14:38:47;3.50;;;2.53;;
7027;SDS011;3555;53.248;10.336;2022-07-24T14:41:13;3.67;;;2.50;;
7027;SDS011;3555;53.248;10.336;2022-07-24T14:43:40;3.65;;;2.55;;
7027;SDS011;3555;53.248;10.336;2022-07-24T14:46:08;3.38;;;2.50;;
7027;SDS011;3555;53.248;10.336;2022-07-24T14:48:35;3.05;;;2.40;;
7027;SDS011;3555;53.248;10.336;2022-07-24T14:51:02;3.25;;;2.50;;
7027;SDS011;3555;53.248;10.336;2022-07-24T14:53:29;3.05;;;2.40;;
7027;SDS011;3555;53.248;10.336;2022-07-24T14:55:56;2.80;;;2.50;;
7027;SDS011;3555;53.248;10.336;2022-07-24T14:58:23;3.78;;;2.50;;
7027;SDS011;3555;53.248;10.336;2022-07-24T15:00:49;2.80;;;2.35;;
7027;SDS011;3555;53.248;10.336;2022-07-24T15:03:18;2.83;;;2.30;;
7027;SDS011;3555;53.248;10.336;2022-07-24T15:05:44;3.28;;;2.42;;
7027;SDS011;3555;53.248;10.336;2022-07-24T15:08:11;4.72;;;2.72;;
7027;SDS011;3555;53.248;10.336;2022-07-24T15:10:38;3.08;;;2.63;;
7027;SDS011;3555;53.248;10.336;2022-07-24T15:13:05;2.80;;;2.40;;
7027;SDS011;3555;53.248;10.336;2022-07-24T15:15:32;2.85;;;2.50;;
7027;SDS011;3555;53.248;10.336;2022-07-24T15:17:59;3.58;;;2.65;;
7027;SDS011;3555;53.248;10.336;2022-07-24T15:20:27;3.03;;;2.50;;